Terminal Aerodrome Forecast
Issued by NWS Oklahoma City, OK

Home | Current Version | Previous Version | Text Only | Print | Product List | Glossary On
Versions: 1 2 3 4 5 6 7 8 9 10 11 12 13 14 15 16 17 18
000
FTUS44 KOUN 042320
TAFOUN
TAF
KOUN 042320Z 0500/0524 36004KT P6SM SKC
     FM050800 14003KT P6SM SKC
      TEMPO 0512/0515 4SM BR
     FM051500 16008KT P6SM SCT250=

USA.gov is the U.S. government's official web portal to all federal, state and local government web resources and services.